| time (UTC) | temp C | wind direction | speed KPH | gust KPH | rain 1hr cm | rain 24hr cm | rain mn cm | humidity % | barometer mb |
| 20260508183230 | 7 | 61 | 4.8 | 9.7 | 0.00 | 0.00 | 0.00 | 64 | 1003.3 |
| 20260508182230 | 7 | 45 | 0.0 | 8.0 | 0.00 | 0.00 | 0.00 | 60 | 1003.3 |
| 20260508181230 | 7 | 82 | 1.6 | 12.9 | 0.00 | 0.00 | 0.00 | 60 | 1003.3 |
| 20260508180230 | 7 | 56 | 6.4 | 11.3 | 0.00 | 0.00 | 0.00 | 59 | 1003.3 |
| 20260508175230 | 8 | 55 | 0.0 | 11.3 | 0.00 | 0.00 | 0.00 | 55 | 1003.3 |
| 20260508174230 | 8 | 88 | 4.8 | 16.1 | 0.00 | 0.00 | 0.00 | 51 | 1003.3 |
| 20260508173100 | 10 | 68 | 4.8 | 14.5 | 0.00 | 0.00 | 0.00 | 45 | 1003.3 |
| 20260508172100 | 10 | 60 | 6.4 | 14.5 | 0.00 | 0.00 | 0.00 | 43 | 1003.3 |
| 20260508171100 | 10 | 65 | 6.4 | 11.3 | 0.00 | 0.00 | 0.00 | 42 | 1003.3 |
| 20260508170100 | 11 | 88 | 6.4 | 12.9 | 0.00 | 0.00 | 0.00 | 40 | 1003.3 |
| 20260508165100 | 11 | 100 | 4.8 | 12.9 | 0.00 | 0.00 | 0.00 | 40 | 1003.3 |
| 20260508164100 | 11 | 68 | 8.0 | 17.7 | 0.00 | 0.00 | 0.00 | 40 | 1003.3 |
| 20260508163100 | 11 | 86 | 8.0 | 14.5 | 0.00 | 0.00 | 0.00 | 40 | 1003.3 |
| 20260508162100 | 11 | 76 | 4.8 | 9.7 | 0.00 | 0.00 | 0.00 | 40 | 1003.3 |
| 20260508161100 | 11 | 88 | 8.0 | 14.5 | 0.00 | 0.00 | 0.00 | 40 | 1003.3 |
| 20260508160100 | 11 | 57 | 6.4 | 12.9 | 0.00 | 0.00 | 0.00 | 40 | 1003.3 |
| 20260508155100 | 11 | 43 | 3.2 | 4.8 | 0.00 | 0.00 | 0.00 | 41 | 1003.3 |
| 20260508154100 | 11 | 68 | 0.0 | 4.8 | 0.00 | 0.00 | 0.00 | 40 | 1003.3 |
| 20260508153100 | 12 | 0 | 0.0 | 4.8 | 0.00 | 0.00 | 0.00 | 40 | 1003.3 |
| 20260508152100 | 12 | 312 | 3.2 | 6.4 | 0.00 | 0.00 | 0.00 | 38 | 1003.3 |
| 20260508150908 | 13 | 348 | 3.2 | 8.0 | 0.00 | 0.00 | 0.00 | 38 | 1003.3 |
| 20260508145908 | 13 | 0 | 3.2 | 6.4 | 0.00 | 0.00 | 0.00 | 38 | 1003.3 |
| 20260508144908 | 14 | 158 | 0.0 | 0.0 | 0.00 | 0.00 | 0.00 | 38 | 1003.3 |
| 20260508143908 | 15 | 158 | 0.0 | 3.2 | 0.00 | 0.00 | 0.00 | 37 | 1003.3 |
| 20260508142908 | 15 | 135 | 0.0 | 3.2 | 0.00 | 0.00 | 0.00 | 36 | 1003.3 |
| 20260508141738 | 15 | 135 | 0.0 | 4.8 | 0.00 | 0.00 | 0.00 | 36 | 1003.3 |
| 20260508140738 | 15 | 173 | 3.2 | 6.4 | 0.00 | 0.00 | 0.00 | 36 | 1003.3 |
| 20260508135738 | 16 | 147 | 3.2 | 6.4 | 0.00 | 0.00 | 0.00 | 35 | 1004.4 |
| 20260508134738 | 16 | 160 | 1.6 | 6.4 | 0.00 | 0.00 | 0.00 | 35 | 1004.4 |
| 20260508133738 | 17 | 141 | 3.2 | 6.4 | 0.00 | 0.00 | 0.00 | 35 | 1004.4 |
| 20260508132738 | 17 | 135 | 0.0 | 4.8 | 0.00 | 0.00 | 0.00 | 35 | 1005.4 |
| 20260508131738 | 16 | 135 | 1.6 | 6.4 | 0.00 | 0.00 | 0.00 | 35 | 1005.4 |
| 20260508130738 | 16 | 140 | 1.6 | 4.8 | 0.00 | 0.00 | 0.00 | 36 | 1005.4 |
| 20260508125738 | 15 | 115 | 1.6 | 4.8 | 0.00 | 0.00 | 0.00 | 36 | 1004.4 |
| 20260508124738 | 15 | 158 | 0.0 | 3.2 | 0.00 | 0.00 | 0.00 | 35 | 1005.4 |
| 20260508123738 | 15 | 158 | 0.0 | 3.2 | 0.00 | 0.00 | 0.00 | 34 | 1005.4 |
| 20260508122738 | 15 | 158 | 3.2 | 6.4 | 0.00 | 0.00 | 0.00 | 34 | 1005.4 |
| 20260508121738 | 15 | 162 | 4.8 | 8.0 | 0.00 | 0.00 | 0.00 | 34 | 1006.4 |
| 20260508120738 | 15 | 192 | 4.8 | 8.0 | 0.00 | 0.00 | 0.00 | 33 | 1006.4 |
| 20260508115738 | 16 | 166 | 3.2 | 8.0 | 0.00 | 0.00 | 0.00 | 32 | 1006.4 |
| 20260508114738 | 16 | 166 | 1.6 | 9.7 | 0.00 | 0.00 | 0.00 | 31 | 1007.5 |
| 20260508113738 | 16 | 192 | 4.8 | 9.7 | 0.00 | 0.00 | 0.00 | 30 | 1007.5 |
| 20260508112738 | 16 | 186 | 6.4 | 9.7 | 0.00 | 0.00 | 0.00 | 29 | 1007.5 |
| 20260508111738 | 17 | 192 | 6.4 | 11.3 | 0.00 | 0.00 | 0.00 | 29 | 1007.5 |
| 20260508110738 | 18 | 160 | 8.0 | 12.9 | 0.00 | 0.00 | 0.00 | 28 | 1007.5 |
| 20260508105738 | 18 | 137 | 4.8 | 9.7 | 0.00 | 0.00 | 0.00 | 29 | 1007.5 |
| 20260508104738 | 18 | 128 | 4.8 | 8.0 | 0.00 | 0.00 | 0.00 | 30 | 1006.4 |
| 20260508103738 | 17 | 162 | 4.8 | 8.0 | 0.00 | 0.00 | 0.00 | 29 | 1006.4 |
| 20260508102738 | 16 | 182 | 6.4 | 9.7 | 0.00 | 0.00 | 0.00 | 28 | 1007.5 |
| 20260508101738 | 16 | 151 | 3.2 | 12.9 | 0.00 | 0.00 | 0.00 | 28 | 1008.5 |
| 20260508100738 | 16 | 168 | 4.8 | 12.9 | 0.00 | 0.00 | 0.00 | 27 | 1008.5 |
| 20260508095738 | 16 | 135 | 9.7 | 12.9 | 0.00 | 0.00 | 0.00 | 26 | 1008.5 |
| 20260508094738 | 17 | 166 | 6.4 | 9.7 | 0.00 | 0.00 | 0.00 | 26 | 1009.6 |
| 20260508093738 | 17 | 143 | 8.0 | 12.9 | 0.00 | 0.00 | 0.00 | 25 | 1009.6 |
| 20260508092738 | 17 | 155 | 8.0 | 16.1 | 0.00 | 0.00 | 0.00 | 25 | 1008.5 |
| 20260508091738 | 17 | 155 | 9.7 | 24.1 | 0.00 | 0.00 | 0.00 | 25 | 1009.6 |
| 20260508090738 | 17 | 160 | 6.4 | 16.1 | 0.00 | 0.00 | 0.00 | 24 | 1009.6 |
| 20260508085738 | 18 | 151 | 8.0 | 19.3 | 0.00 | 0.00 | 0.00 | 25 | 1009.6 |
| 20260508084738 | 17 | 166 | 8.0 | 12.9 | 0.00 | 0.00 | 0.00 | 25 | 1009.6 |
| 20260508083738 | 17 | 146 | 6.4 | 14.5 | 0.00 | 0.00 | 0.00 | 24 | 1009.6 |
| 20260508082739 | 18 | 170 | 6.4 | 19.3 | 0.00 | 0.00 | 0.00 | 23 | 1009.6 |
| 20260508081739 | 18 | 155 | 11.3 | 17.7 | 0.00 | 0.00 | 0.00 | 23 | 1010.6 |
| 20260508080548 | 18 | 153 | 6.4 | 12.9 | 0.00 | 0.00 | 0.00 | 24 | 1010.6 |
| 20260508075548 | 17 | 160 | 8.0 | 16.1 | 0.00 | 0.00 | 0.00 | 24 | 1010.6 |
| 20260508074548 | 18 | 180 | 4.8 | 9.7 | 0.00 | 0.00 | 0.00 | 23 | 1010.6 |
| 20260508073548 | 19 | 146 | 6.4 | 12.9 | 0.00 | 0.00 | 0.00 | 23 | 1010.6 |
| 20260508072548 | 18 | 197 | 8.0 | 17.7 | 0.00 | 0.00 | 0.00 | 24 | 1010.6 |
| 20260508071548 | 18 | 155 | 11.3 | 24.1 | 0.00 | 0.00 | 0.00 | 23 | 1011.6 |
| 20260508070548 | 18 | 160 | 9.7 | 16.1 | 0.00 | 0.00 | 0.00 | 25 | 1011.6 |
| 20260508065548 | 18 | 178 | 8.0 | 17.7 | 0.00 | 0.00 | 0.00 | 27 | 1011.6 |
| 20260508064548 | 18 | 166 | 8.0 | 14.5 | 0.00 | 0.00 | 0.00 | 27 | 1012.7 |
| 20260508063548 | 17 | 140 | 9.7 | 19.3 | 0.00 | 0.00 | 0.00 | 27 | 1011.6 |
| 20260508062548 | 17 | 120 | 4.8 | 12.9 | 0.00 | 0.00 | 0.00 | 27 | 1011.6 |
| 20260508061548 | 17 | 112 | 6.4 | 14.5 | 0.00 | 0.00 | 0.00 | 29 | 1010.6 |
| 20260508060548 | 17 | 102 | 6.4 | 16.1 | 0.00 | 0.00 | 0.00 | 28 | 1011.6 |
| 20260508055548 | 17 | 57 | 6.4 | 14.5 | 0.00 | 0.00 | 0.00 | 27 | 1011.6 |
| 20260508054548 | 17 | 104 | 6.4 | 11.3 | 0.00 | 0.00 | 0.00 | 30 | 1012.7 |
| 20260508053357 | 17 | 155 | 9.7 | 17.7 | 0.00 | 0.00 | 0.00 | 32 | 1012.7 |
| 20260508052205 | 16 | 133 | 6.4 | 16.1 | 0.00 | 0.00 | 0.00 | 32 | 1012.7 |
| 20260508051206 | 16 | 105 | 4.8 | 12.9 | 0.00 | 0.00 | 0.00 | 33 | 1012.7 |
| 20260508050206 | 15 | 82 | 4.8 | 11.3 | 0.00 | 0.00 | 0.00 | 33 | 1013.7 |
| 20260508045205 | 15 | 79 | 6.4 | 12.9 | 0.00 | 0.00 | 0.00 | 34 | 1013.7 |
| 20260508044206 | 15 | 139 | 6.4 | 14.5 | 0.00 | 0.00 | 0.00 | 34 | 1013.7 |
| 20260508043205 | 15 | 148 | 8.0 | 14.5 | 0.00 | 0.00 | 0.00 | 35 | 1013.7 |
| 20260508042205 | 14 | 137 | 6.4 | 9.7 | 0.00 | 0.00 | 0.00 | 36 | 1013.7 |
| 20260508041206 | 13 | 94 | 4.8 | 11.3 | 0.00 | 0.00 | 0.00 | 36 | 1013.7 |
| 20260508040014 | 12 | 146 | 6.4 | 9.7 | 0.00 | 0.00 | 0.00 | 38 | 1013.7 |
| 20260508035014 | 11 | 130 | 4.8 | 9.7 | 0.00 | 0.00 | 0.00 | 40 | 1014.7 |
| 20260508033844 | 10 | 122 | 6.4 | 14.5 | 0.00 | 0.00 | 0.00 | 41 | 1014.7 |
| 20260508032652 | 8 | 94 | 4.8 | 9.7 | 0.00 | 0.00 | 0.00 | 42 | 1013.7 |
| 20260508031653 | 7 | 102 | 4.8 | 9.7 | 0.00 | 0.00 | 0.00 | 41 | 1013.7 |
| 20260508030652 | 7 | 59 | 3.2 | 11.3 | 0.00 | 0.00 | 0.00 | 41 | 1013.7 |
| 20260508025653 | 7 | 118 | 1.6 | 12.9 | 0.00 | 0.00 | 0.00 | 42 | 1012.7 |
| 20260508024652 | 7 | 118 | 4.8 | 9.7 | 0.00 | 0.00 | 0.00 | 42 | 1013.7 |
| 20260508023653 | 7 | 81 | 3.2 | 9.7 | 0.00 | 0.00 | 0.00 | 43 | 1013.7 |
| 20260508022652 | 6 | 97 | 3.2 | 9.7 | 0.00 | 0.00 | 0.00 | 44 | 1013.7 |
| 20260508021501 | 6 | 74 | 4.8 | 9.7 | 0.00 | 0.00 | 0.00 | 44 | 1013.7 |
| 20260508020502 | 6 | 72 | 3.2 | 9.7 | 0.00 | 0.00 | 0.00 | 45 | 1013.7 |
| 20260508015502 | 5 | 82 | 1.6 | 11.3 | 0.00 | 0.00 | 0.00 | 45 | 1013.7 |
| 20260508014501 | 5 | 70 | 3.2 | 9.7 | 0.00 | 0.00 | 0.00 | 45 | 1013.7 |
| 20260508013310 | 4 | 79 | 3.2 | 6.4 | 0.00 | 0.00 | 0.00 | 46 | 1013.7 |
| 20260508012310 | 4 | 61 | 1.6 | 6.4 | 0.00 | 0.00 | 0.00 | 46 | 1013.7 |
| 20260508011310 | 3 | 65 | 3.2 | 6.4 | 0.00 | 0.00 | 0.00 | 47 | 1013.7 |
| 20260508010310 | 3 | 52 | 1.6 | 8.0 | 0.00 | 0.00 | 0.00 | 48 | 1014.7 |
| 20260508005310 | 3 | 61 | 3.2 | 6.4 | 0.00 | 0.00 | 0.00 | 48 | 1014.7 |
| 20260508004310 | 2 | 47 | 3.2 | 6.4 | 0.00 | 0.00 | 0.00 | 49 | 1013.7 |
| 20260508003310 | 2 | 50 | 1.6 | 6.4 | 0.00 | 0.00 | 0.00 | 49 | 1013.7 |
| 20260508002119 | 2 | 85 | 4.8 | 6.4 | 0.00 | 0.00 | 0.00 | 51 | 1013.7 |
| 20260508001119 | 2 | 68 | 1.6 | 4.8 | 0.00 | 0.00 | 0.00 | 53 | 1013.7 |
| 20260508000119 | 1 | 61 | 1.6 | 4.8 | 0.00 | 0.00 | 0.00 | 57 | 1014.7 |
| 20260507235119 | 0 | 22 | 0.0 | 3.2 | 0.00 | 0.00 | 0.00 | 64 | 1014.7 |
| 20260507233928 | 0 | 22 | 0.0 | 0.0 | 0.00 | 0.00 | 0.00 | 64 | 1014.7 |
| 20260507232757 | 0 | 22 | 0.0 | 0.0 | 0.00 | 0.00 | 0.00 | 63 | 1014.7 |
| 20260507231757 | 0 | 22 | 0.0 | 0.0 | 0.00 | 0.00 | 0.00 | 62 | 1014.7 |
| 20260507230757 | 0 | 22 | 0.0 | 0.0 | 0.00 | 0.00 | 0.00 | 63 | 1014.7 |
| 20260507225757 | 0 | 22 | 0.0 | 0.0 | 0.00 | 0.00 | 0.00 | 63 | 1014.7 |
| 20260507224757 | -1 | 22 | 0.0 | 0.0 | 0.00 | 0.00 | 0.00 | 63 | 1013.7 |
| 20260507223757 | -1 | 22 | 0.0 | 0.0 | 0.00 | 0.00 | 0.00 | 62 | 1013.7 |
| 20260507222627 | -1 | 22 | 0.0 | 0.0 | 0.00 | 0.00 | 0.00 | 61 | 1013.7 |
| 20260507221627 | -1 | 22 | 0.0 | 0.0 | 0.00 | 0.00 | 0.00 | 62 | 1013.7 |
| 20260507220457 | -1 | 22 | 0.0 | 0.0 | 0.00 | 0.00 | 0.00 | 62 | 1013.7 |
| 20260507215457 | -1 | 22 | 0.0 | 0.0 | 0.00 | 0.00 | 0.00 | 61 | 1013.7 |
| 20260507214457 | -1 | 22 | 0.0 | 0.0 | 0.00 | 0.00 | 0.00 | 59 | 1014.7 |
| 20260507213457 | 0 | 22 | 0.0 | 0.0 | 0.00 | 0.00 | 0.00 | 59 | 1013.7 |
| 20260507212307 | 0 | 22 | 0.0 | 1.6 | 0.00 | 0.00 | 0.00 | 58 | 1013.7 |
| 20260507211306 | 0 | 90 | 0.0 | 0.0 | 0.00 | 0.00 | 0.00 | 59 | 1013.7 |
| 20260507210305 | 0 | 90 | 0.0 | 0.0 | 0.00 | 0.00 | 0.00 | 56 | 1013.7 |
| 20260507205307 | 0 | 90 | 0.0 | 0.0 | 0.00 | 0.00 | 0.00 | 56 | 1013.7 |
| 20260507204135 | 0 | 90 | 0.0 | 0.0 | 0.00 | 0.00 | 0.00 | 56 | 1013.7 |
| 20260507202944 | 0 | 90 | 0.0 | 0.0 | 0.00 | 0.00 | 0.00 | 56 | 1013.7 |
| 20260507201814 | 0 | 90 | 0.0 | 0.0 | 0.00 | 0.00 | 0.00 | 56 | 1013.7 |
| 20260507200814 | 0 | 90 | 0.0 | 0.0 | 0.00 | 0.00 | 0.00 | 56 | 1013.7 |
| 20260507195814 | 0 | 90 | 0.0 | 0.0 | 0.00 | 0.00 | 0.00 | 56 | 1013.7 |
| 20260507194814 | 0 | 90 | 0.0 | 0.0 | 0.00 | 0.00 | 0.00 | 54 | 1013.7 |
| 20260507193814 | 0 | 90 | 0.0 | 0.0 | 0.00 | 0.00 | 0.00 | 54 | 1013.7 |
| 20260507192814 | 0 | 90 | 0.0 | 0.0 | 0.00 | 0.00 | 0.00 | 54 | 1013.7 |
| 20260507191814 | 0 | 90 | 0.0 | 0.0 | 0.00 | 0.00 | 0.00 | 54 | 1013.7 |
| 20260507190814 | 0 | 90 | 0.0 | 0.0 | 0.00 | 0.00 | 0.00 | 53 | 1013.7 |
| 20260507185814 | 0 | 90 | 0.0 | 0.0 | 0.00 | 0.00 | 0.00 | 53 | 1012.7 |
| 20260507184814 | 1 | 90 | 0.0 | 0.0 | 0.00 | 0.00 | 0.00 | 54 | 1012.7 |
| 20260507183814 | 1 | 90 | 0.0 | 0.0 | 0.00 | 0.00 | 0.00 | 52 | 1012.7 |